createdAt,value
2018-12-06T00:00:09.989Z,16.69
2018-12-06T00:02:36.624Z,16.69
2018-12-06T00:05:03.276Z,16.71
2018-12-06T00:07:29.920Z,16.71
2018-12-06T00:09:56.586Z,16.67
2018-12-06T00:12:23.235Z,16.71
2018-12-06T00:14:49.890Z,16.66
2018-12-06T00:17:16.529Z,16.64
2018-12-06T00:19:43.160Z,16.67
2018-12-06T00:22:09.809Z,16.66
2018-12-06T00:24:36.443Z,16.69
2018-12-06T00:27:03.090Z,16.66
2018-12-06T00:29:29.741Z,16.68
2018-12-06T00:31:56.391Z,16.62
2018-12-06T00:34:23.029Z,16.63
2018-12-06T00:36:49.678Z,16.63
2018-12-06T00:39:16.321Z,16.63
2018-12-06T00:41:42.973Z,16.58
2018-12-06T00:44:09.614Z,16.61
2018-12-06T00:46:36.258Z,16.59
2018-12-06T00:49:02.897Z,16.59
2018-12-06T00:51:29.562Z,16.57
2018-12-06T00:53:56.194Z,16.60
2018-12-06T00:56:22.833Z,16.56
2018-12-06T00:58:49.476Z,16.50
2018-12-06T01:01:19.433Z,16.53
2018-12-06T01:03:46.092Z,16.51
2018-12-06T01:06:12.735Z,16.51
2018-12-06T01:08:39.374Z,16.49
2018-12-06T01:11:06.022Z,16.51
2018-12-06T01:13:32.677Z,16.51
2018-12-06T01:15:59.316Z,16.48
2018-12-06T01:18:25.964Z,16.46
2018-12-06T01:20:52.609Z,16.46
2018-12-06T01:23:19.259Z,16.41
2018-12-06T01:25:45.903Z,16.43
2018-12-06T01:28:12.548Z,16.41
2018-12-06T01:30:39.203Z,16.39
2018-12-06T01:33:05.875Z,16.45
2018-12-06T01:35:32.516Z,16.38
2018-12-06T01:37:59.152Z,16.38
2018-12-06T01:40:25.789Z,16.38
2018-12-06T01:42:52.437Z,16.35
2018-12-06T01:45:20.483Z,16.32
2018-12-06T01:47:45.746Z,16.31
2018-12-06T01:50:12.406Z,16.32
2018-12-06T01:52:39.037Z,16.25
2018-12-06T01:55:05.672Z,16.27
2018-12-06T01:57:32.325Z,16.26
2018-12-06T01:59:58.965Z,16.26
2018-12-06T02:02:25.617Z,16.24
2018-12-06T02:04:52.277Z,16.22
2018-12-06T02:07:18.918Z,16.19
2018-12-06T02:09:45.606Z,16.21
2018-12-06T02:12:12.201Z,16.17
2018-12-06T02:14:38.839Z,16.17
2018-12-06T02:17:05.491Z,16.16
2018-12-06T02:19:32.133Z,16.17
2018-12-06T02:21:58.774Z,16.13
2018-12-06T02:24:25.410Z,16.11
2018-12-06T02:26:52.063Z,16.11
2018-12-06T02:29:18.749Z,16.12
2018-12-06T02:31:45.412Z,16.07
2018-12-06T02:34:12.056Z,16.03
2018-12-06T02:36:38.702Z,16.03
2018-12-06T02:39:05.466Z,16.03
2018-12-06T02:41:32.106Z,16.00
2018-12-06T02:43:58.748Z,15.98
2018-12-06T02:46:25.412Z,16.01
2018-12-06T02:48:52.106Z,15.98
2018-12-06T02:51:18.759Z,15.98
2018-12-06T02:53:45.449Z,15.95
2018-12-06T02:56:12.100Z,15.93
2018-12-06T02:58:38.759Z,15.97
2018-12-06T03:01:05.414Z,15.92
2018-12-06T03:03:32.055Z,15.91
2018-12-06T03:05:58.754Z,15.90
2018-12-06T03:08:25.392Z,15.87
2018-12-06T03:10:52.033Z,15.87
2018-12-06T03:13:18.680Z,15.86
2018-12-06T03:15:45.319Z,15.87
2018-12-06T03:18:11.974Z,15.79
2018-12-06T03:20:38.610Z,15.83
2018-12-06T03:23:05.279Z,15.79
2018-12-06T03:25:31.922Z,15.83
2018-12-06T03:27:58.606Z,15.85
2018-12-06T03:30:25.271Z,15.81
2018-12-06T03:32:51.957Z,15.76
2018-12-06T03:35:18.613Z,15.79
2018-12-06T03:37:45.238Z,15.70
2018-12-06T03:40:11.888Z,15.75
2018-12-06T03:42:38.534Z,15.72
2018-12-06T03:45:05.172Z,15.76
2018-12-06T03:47:31.843Z,15.73
2018-12-06T03:49:58.489Z,15.70
2018-12-06T03:52:25.137Z,15.71
2018-12-06T03:54:51.780Z,15.69
2018-12-06T03:57:18.416Z,15.69
2018-12-06T03:59:45.061Z,15.69
2018-12-06T04:02:11.701Z,15.66
2018-12-06T04:04:38.360Z,15.66
2018-12-06T04:07:05.001Z,15.65
2018-12-06T04:09:31.636Z,15.68
2018-12-06T04:11:58.281Z,15.59
2018-12-06T04:14:24.999Z,15.83
2018-12-06T04:16:51.655Z,16.03
2018-12-06T04:19:18.352Z,16.14
2018-12-06T04:21:45.002Z,16.27
2018-12-06T04:24:11.643Z,16.45
2018-12-06T04:26:38.289Z,16.30
2018-12-06T04:29:04.926Z,16.26
2018-12-06T04:31:31.611Z,16.24
2018-12-06T04:33:58.297Z,16.22
2018-12-06T04:36:24.961Z,16.11
2018-12-06T04:38:51.603Z,15.80
2018-12-06T04:41:18.300Z,15.86
2018-12-06T04:43:47.806Z,15.79
2018-12-06T04:46:14.461Z,15.73
2018-12-06T04:48:41.112Z,15.71
2018-12-06T04:51:07.760Z,15.62
2018-12-06T04:53:34.439Z,15.59
2018-12-06T04:56:01.133Z,15.94
2018-12-06T04:58:30.771Z,15.53
2018-12-06T05:00:57.464Z,15.77
2018-12-06T05:03:24.098Z,15.68
2018-12-06T05:05:50.757Z,15.78
2018-12-06T05:08:17.398Z,15.73
2018-12-06T05:10:44.054Z,15.78
2018-12-06T05:13:10.696Z,15.83
2018-12-06T05:15:37.345Z,15.57
2018-12-06T05:18:03.992Z,15.65
2018-12-06T05:20:30.711Z,15.67
2018-12-06T05:22:57.366Z,15.79
2018-12-06T05:25:24.064Z,16.14
2018-12-06T05:27:50.720Z,16.08
2018-12-06T05:30:17.365Z,16.09
2018-12-06T05:32:44.014Z,16.24
2018-12-06T05:35:10.742Z,16.34
2018-12-06T05:37:37.383Z,16.46
2018-12-06T05:40:04.014Z,16.44
2018-12-06T05:42:30.657Z,16.50
2018-12-06T05:44:57.317Z,16.44
2018-12-06T05:47:23.958Z,16.53
2018-12-06T05:49:50.618Z,16.49
2018-12-06T05:52:17.258Z,16.54
2018-12-06T05:54:43.952Z,16.49
2018-12-06T05:57:10.603Z,16.50
2018-12-06T05:59:37.249Z,16.47
2018-12-06T06:02:03.884Z,16.49
2018-12-06T06:04:33.573Z,16.33
2018-12-06T06:07:00.222Z,16.48
2018-12-06T06:09:26.865Z,16.65
2018-12-06T06:11:53.516Z,16.78
2018-12-06T06:14:20.160Z,16.51
2018-12-06T06:16:46.804Z,16.43
2018-12-06T06:19:13.501Z,16.40
2018-12-06T06:21:40.162Z,16.31
2018-12-06T06:24:06.814Z,16.14
2018-12-06T06:26:33.459Z,15.99
2018-12-06T06:29:00.157Z,15.89
2018-12-06T06:31:26.801Z,15.84
2018-12-06T06:33:53.454Z,15.67
2018-12-06T06:36:20.155Z,15.76
2018-12-06T06:38:46.812Z,15.84
2018-12-06T06:41:13.514Z,16.01
2018-12-06T06:43:40.283Z,16.38
2018-12-06T06:46:06.928Z,15.92
2018-12-06T06:48:33.630Z,16.05
2018-12-06T06:51:00.310Z,15.64
2018-12-06T06:53:26.980Z,15.92
2018-12-06T06:55:53.664Z,16.06
2018-12-06T06:58:20.311Z,16.03
2018-12-06T07:00:47.279Z,15.99
2018-12-06T07:03:13.972Z,16.06
2018-12-06T07:05:40.609Z,16.00
2018-12-06T07:08:07.264Z,15.92
2018-12-06T07:10:33.971Z,16.03
2018-12-06T07:13:00.614Z,15.97
2018-12-06T07:15:27.314Z,16.05
2018-12-06T07:17:53.954Z,15.87
2018-12-06T07:20:20.622Z,15.93
2018-12-06T07:22:47.396Z,16.16
2018-12-06T07:25:14.210Z,16.28
2018-12-06T07:27:40.894Z,16.51
2018-12-06T07:30:12.266Z,16.46
2018-12-06T07:32:34.206Z,17.05
2018-12-06T07:35:00.848Z,16.95
2018-12-06T07:37:27.534Z,16.85
2018-12-06T07:39:54.186Z,16.69
2018-12-06T07:42:20.871Z,16.79
2018-12-06T07:44:47.530Z,16.85
2018-12-06T07:47:14.238Z,16.81
2018-12-06T07:49:40.907Z,16.91
2018-12-06T07:52:07.671Z,16.90
2018-12-06T07:54:34.877Z,16.98
2018-12-06T07:57:01.609Z,16.82
2018-12-06T07:59:28.257Z,16.71
2018-12-06T08:01:55.882Z,16.68
2018-12-06T08:04:22.708Z,16.63
2018-12-06T08:06:49.376Z,16.87
2018-12-06T08:09:16.050Z,16.67
2018-12-06T08:11:42.760Z,16.62
2018-12-06T08:14:09.448Z,16.65
2018-12-06T08:16:36.125Z,16.72
2018-12-06T08:19:02.825Z,16.79
2018-12-06T08:21:29.568Z,16.71
2018-12-06T08:23:56.205Z,16.96
2018-12-06T08:26:22.939Z,16.80
2018-12-06T08:28:49.581Z,16.62
2018-12-06T08:31:16.273Z,16.61
2018-12-06T08:33:42.942Z,17.00
2018-12-06T08:36:09.702Z,16.79
2018-12-06T08:38:36.537Z,16.83
2018-12-06T08:41:03.182Z,16.67
2018-12-06T08:43:29.854Z,16.71
2018-12-06T08:45:56.504Z,16.77
2018-12-06T08:48:23.192Z,16.78
2018-12-06T08:50:49.848Z,16.74
2018-12-06T08:53:16.580Z,16.83
2018-12-06T08:55:43.290Z,16.83
2018-12-06T08:58:09.945Z,16.85
2018-12-06T09:00:36.674Z,16.71
2018-12-06T09:03:03.347Z,16.71
2018-12-06T09:05:30.002Z,16.64
2018-12-06T09:07:56.736Z,16.67
2018-12-06T09:10:23.379Z,16.64
2018-12-06T09:12:50.184Z,16.69
2018-12-06T09:15:16.826Z,16.56
2018-12-06T09:17:43.525Z,16.24
2018-12-06T09:20:10.191Z,16.39
2018-12-06T09:22:36.887Z,16.62
2018-12-06T09:25:03.530Z,16.52
2018-12-06T09:27:30.195Z,16.42
2018-12-06T09:29:56.891Z,16.40
2018-12-06T09:32:23.698Z,16.35
2018-12-06T09:34:50.338Z,16.61
2018-12-06T09:37:16.985Z,16.60
2018-12-06T09:39:43.627Z,16.37
2018-12-06T09:42:10.462Z,16.20
2018-12-06T09:44:37.112Z,16.30
2018-12-06T09:47:03.810Z,16.12
2018-12-06T09:49:30.471Z,16.03
2018-12-06T09:51:57.122Z,16.07
2018-12-06T09:54:23.778Z,16.01
2018-12-06T09:56:50.479Z,15.88
2018-12-06T09:59:17.122Z,15.94
2018-12-06T10:01:43.766Z,15.80
2018-12-06T10:04:10.483Z,15.83
2018-12-06T10:06:37.127Z,15.70
2018-12-06T10:09:03.778Z,15.88
2018-12-06T10:11:30.503Z,15.85
2018-12-06T10:13:57.154Z,16.03
2018-12-06T10:16:23.986Z,16.12
2018-12-06T10:18:50.679Z,16.18
2018-12-06T10:21:17.330Z,16.10
2018-12-06T10:23:43.981Z,16.10
2018-12-06T10:26:10.633Z,16.25
2018-12-06T10:28:37.341Z,16.21
2018-12-06T10:31:04.019Z,16.10
2018-12-06T10:33:30.676Z,16.14
2018-12-06T10:35:57.342Z,16.16
2018-12-06T10:38:24.038Z,15.97
2018-12-06T10:40:50.681Z,15.95
2018-12-06T10:43:17.374Z,15.86
2018-12-06T10:45:44.020Z,16.13
2018-12-06T10:48:10.663Z,15.87
2018-12-06T10:50:37.351Z,15.99
2018-12-06T10:53:04.337Z,15.98
2018-12-06T10:55:31.043Z,15.91
2018-12-06T10:57:57.742Z,15.99
2018-12-06T11:00:24.385Z,15.96
2018-12-06T11:02:51.095Z,16.14
2018-12-06T11:05:17.740Z,16.12
2018-12-06T11:07:44.432Z,16.21
2018-12-06T11:10:11.074Z,16.42
2018-12-06T11:12:37.784Z,16.40
2018-12-06T11:15:04.470Z,16.53
2018-12-06T11:17:31.123Z,16.48
2018-12-06T11:19:58.086Z,16.59
2018-12-06T11:22:24.707Z,16.80
2018-12-06T11:24:51.473Z,16.90
2018-12-06T11:27:18.122Z,17.15
2018-12-06T11:29:44.956Z,17.17
2018-12-06T11:32:11.722Z,17.28
2018-12-06T11:34:38.437Z,17.02
2018-12-06T11:37:05.085Z,17.16
2018-12-06T11:39:31.786Z,16.99
2018-12-06T11:41:58.439Z,17.47
2018-12-06T11:44:25.089Z,17.27
2018-12-06T11:46:51.795Z,17.05
2018-12-06T11:49:19.495Z,17.21
2018-12-06T11:51:46.170Z,17.37
2018-12-06T11:54:12.814Z,17.42
2018-12-06T11:56:39.503Z,17.63
2018-12-06T11:59:09.333Z,17.28
2018-12-06T12:01:36.107Z,17.21
2018-12-06T12:06:55.994Z,16.34
2018-12-06T12:09:25.625Z,16.47
2018-12-06T12:11:52.272Z,16.54
2018-12-06T12:14:18.978Z,16.62
2018-12-06T12:21:20.798Z,17.88
2018-12-06T12:23:47.480Z,17.77
2018-12-06T12:26:14.122Z,17.73
2018-12-06T12:28:40.844Z,17.95
2018-12-06T12:31:07.493Z,18.04
2018-12-06T12:33:34.189Z,18.15
2018-12-06T12:36:00.899Z,18.14
2018-12-06T12:38:27.594Z,18.10
2018-12-06T12:40:54.236Z,18.31
2018-12-06T12:43:20.978Z,18.26
2018-12-06T12:45:47.665Z,18.31
2018-12-06T12:48:14.362Z,18.35
2018-12-06T12:50:41.043Z,18.42
2018-12-06T12:53:07.709Z,18.48
2018-12-06T12:55:34.486Z,18.40
2018-12-06T12:58:01.197Z,18.67
2018-12-06T13:00:29.934Z,18.42
2018-12-06T13:02:56.736Z,18.61
2018-12-06T13:05:23.393Z,18.28
2018-12-06T13:07:50.117Z,18.54
2018-12-06T13:10:16.763Z,18.65
2018-12-06T13:12:43.411Z,18.71
2018-12-06T13:15:10.068Z,18.57
2018-12-06T13:17:36.718Z,18.75
2018-12-06T13:20:03.510Z,18.74
2018-12-06T13:22:30.372Z,18.72
2018-12-06T13:24:57.029Z,18.82
2018-12-06T13:27:23.732Z,18.93
2018-12-06T13:29:50.464Z,18.72
2018-12-06T13:32:17.118Z,18.65
2018-12-06T13:34:43.848Z,18.61
2018-12-06T13:37:10.561Z,18.74
2018-12-06T13:39:37.204Z,18.69
2018-12-06T13:42:06.229Z,18.86
2018-12-06T13:44:32.879Z,18.85
2018-12-06T13:46:59.526Z,18.83
2018-12-06T13:49:26.201Z,18.82
2018-12-06T13:51:52.868Z,18.84
2018-12-06T13:54:26.762Z,19.00
2018-12-06T13:56:46.251Z,18.91
2018-12-06T13:59:12.900Z,18.67
2018-12-06T14:01:39.544Z,18.79
2018-12-06T14:04:07.293Z,18.94
2018-12-06T14:06:33.935Z,18.97
2018-12-06T14:09:00.577Z,18.76
2018-12-06T14:11:27.229Z,19.08
2018-12-06T14:13:53.886Z,19.05
2018-12-06T14:16:20.598Z,18.74
2018-12-06T14:18:47.237Z,18.51
2018-12-06T14:21:13.978Z,18.21
2018-12-06T14:23:40.617Z,17.99
2018-12-06T14:26:07.270Z,18.08
2018-12-06T14:28:33.994Z,18.05
2018-12-06T14:31:00.640Z,18.12
2018-12-06T14:33:27.346Z,17.91
2018-12-06T14:35:53.988Z,17.76
2018-12-06T14:38:20.640Z,17.73
2018-12-06T14:40:47.315Z,17.75
2018-12-06T14:43:14.005Z,17.60
2018-12-06T14:45:40.657Z,17.78
2018-12-06T14:48:07.318Z,17.88
2018-12-06T14:50:33.962Z,18.00
2018-12-06T14:53:00.659Z,17.92
2018-12-06T14:55:27.363Z,17.98
2018-12-06T14:57:54.027Z,18.22
2018-12-06T15:00:20.695Z,18.22
2018-12-06T15:02:47.369Z,18.34
2018-12-06T15:05:14.619Z,18.38
2018-12-06T15:07:41.306Z,18.35
2018-12-06T15:10:08.008Z,18.50
2018-12-06T15:12:34.725Z,18.60
2018-12-06T15:15:01.571Z,18.61
2018-12-06T15:17:28.270Z,18.53
2018-12-06T15:19:54.992Z,18.67
2018-12-06T15:22:21.838Z,18.72
2018-12-06T15:24:51.408Z,18.67
2018-12-06T15:27:15.533Z,18.66
2018-12-06T15:29:44.838Z,18.63
2018-12-06T15:32:11.560Z,18.82
2018-12-06T15:34:38.284Z,18.91
2018-12-06T15:37:05.158Z,18.95
2018-12-06T15:39:31.999Z,19.01
2018-12-06T15:41:58.693Z,19.06
2018-12-06T15:44:25.345Z,19.08
2018-12-06T15:46:52.101Z,19.06
2018-12-06T15:49:18.843Z,18.97
2018-12-06T15:51:45.534Z,19.08
2018-12-06T15:54:12.175Z,19.07
2018-12-06T15:56:38.826Z,18.92
2018-12-06T15:59:05.529Z,18.95
2018-12-06T16:01:32.238Z,18.84
2018-12-06T16:03:58.991Z,18.94
2018-12-06T16:06:25.684Z,18.72
2018-12-06T16:08:52.326Z,18.63
2018-12-06T16:11:19.090Z,18.57
2018-12-06T16:13:45.730Z,18.56
2018-12-06T16:16:12.379Z,18.46
2018-12-06T16:18:39.046Z,18.38
2018-12-06T16:21:05.693Z,18.37
2018-12-06T16:23:32.390Z,18.33
2018-12-06T16:25:59.119Z,18.22
2018-12-06T16:28:25.840Z,18.08
2018-12-06T16:30:52.525Z,18.03
2018-12-06T16:33:19.320Z,17.92
2018-12-06T16:35:46.552Z,18.00
2018-12-06T16:38:12.638Z,17.98
2018-12-06T16:40:39.307Z,17.90
2018-12-06T16:43:05.947Z,17.85
2018-12-06T16:45:32.733Z,17.70
2018-12-06T16:47:59.375Z,17.71
2018-12-06T16:50:26.074Z,17.69
2018-12-06T16:52:52.714Z,17.68
2018-12-06T16:55:19.370Z,17.69
2018-12-06T16:57:46.128Z,17.60
2018-12-06T17:00:14.536Z,17.56
2018-12-06T17:02:39.415Z,17.50
2018-12-06T17:05:06.076Z,17.51
2018-12-06T17:07:32.718Z,17.40
2018-12-06T17:09:59.353Z,17.40
2018-12-06T17:12:26.025Z,17.41
2018-12-06T17:14:52.734Z,17.38
2018-12-06T17:17:19.381Z,17.22
2018-12-06T17:19:46.029Z,17.23
2018-12-06T17:22:12.735Z,17.17
2018-12-06T17:24:39.385Z,17.15
2018-12-06T17:27:06.020Z,17.12
2018-12-06T17:29:32.678Z,17.12
2018-12-06T17:31:59.382Z,17.03
2018-12-06T17:34:26.030Z,17.04
2018-12-06T17:36:52.672Z,17.02
2018-12-06T17:39:19.352Z,16.97
2018-12-06T17:41:46.143Z,16.89
2018-12-06T17:44:12.837Z,16.88
2018-12-06T17:46:39.498Z,16.88
2018-12-06T17:49:06.200Z,16.86
2018-12-06T17:51:32.853Z,16.76
2018-12-06T17:53:59.507Z,16.77
2018-12-06T17:56:26.173Z,16.71
2018-12-06T17:58:52.815Z,16.71
2018-12-06T18:01:19.470Z,16.63
2018-12-06T18:03:46.130Z,16.65
2018-12-06T18:06:12.831Z,16.61
2018-12-06T18:08:39.640Z,16.61
2018-12-06T18:11:06.355Z,16.61
2018-12-06T18:13:32.997Z,16.58
2018-12-06T18:15:59.693Z,16.49
2018-12-06T18:18:26.433Z,16.52
2018-12-06T18:20:53.145Z,16.43
2018-12-06T18:23:19.782Z,16.43
2018-12-06T18:25:46.450Z,16.44
2018-12-06T18:28:13.155Z,16.44
2018-12-06T18:30:39.817Z,16.42
2018-12-06T18:33:06.506Z,16.44
2018-12-06T18:35:33.222Z,16.43
2018-12-06T18:37:59.883Z,16.39
2018-12-06T18:40:26.578Z,16.42
2018-12-06T18:42:53.286Z,16.33
2018-12-06T18:45:19.936Z,16.35
2018-12-06T18:47:46.588Z,16.30
2018-12-06T18:50:13.249Z,16.32
2018-12-06T18:52:39.899Z,16.30
2018-12-06T18:55:06.595Z,16.33
2018-12-06T18:57:33.321Z,16.28
2018-12-06T18:59:59.986Z,16.29
2018-12-06T19:02:26.698Z,16.26
2018-12-06T19:04:53.353Z,16.30
2018-12-06T19:07:20.031Z,16.19
2018-12-06T19:09:48.709Z,16.21
2018-12-06T19:12:15.390Z,16.19
2018-12-06T19:14:42.174Z,16.20
2018-12-06T19:17:08.861Z,16.21
2018-12-06T19:19:35.613Z,16.17
2018-12-06T19:22:02.269Z,16.16
2018-12-06T19:24:28.930Z,16.19
2018-12-06T19:26:55.651Z,16.16
2018-12-06T19:29:22.336Z,16.12
2018-12-06T19:31:49.035Z,16.08
2018-12-06T19:34:15.678Z,16.12
2018-12-06T19:36:42.319Z,16.09
2018-12-06T19:39:08.990Z,16.06
2018-12-06T19:41:35.814Z,16.05
2018-12-06T19:44:02.545Z,16.02
2018-12-06T19:46:29.179Z,16.00
2018-12-06T19:48:56.002Z,16.02
2018-12-06T19:51:22.671Z,15.98
2018-12-06T19:53:49.585Z,15.96
2018-12-06T19:56:16.225Z,15.97
2018-12-06T19:58:42.875Z,15.94
2018-12-06T20:01:09.617Z,15.91
2018-12-06T20:03:36.272Z,15.89
2018-12-06T20:06:02.966Z,15.93
2018-12-06T20:08:29.614Z,15.90
2018-12-06T20:10:56.278Z,15.96
2018-12-06T20:13:22.968Z,15.83
2018-12-06T20:15:49.715Z,15.90
2018-12-06T20:18:16.371Z,15.85
2018-12-06T20:20:43.014Z,15.82
2018-12-06T20:23:09.718Z,15.86
2018-12-06T20:25:36.359Z,15.86
2018-12-06T20:28:03.016Z,15.86
2018-12-06T20:30:29.683Z,15.87
2018-12-06T20:32:56.337Z,15.86
2018-12-06T20:35:23.030Z,15.79
2018-12-06T20:37:49.730Z,15.77
2018-12-06T20:40:16.428Z,15.78
2018-12-06T20:42:43.137Z,15.75
2018-12-06T20:45:09.798Z,15.70
2018-12-06T20:47:36.503Z,15.72
2018-12-06T20:50:03.146Z,15.65
2018-12-06T20:52:29.814Z,15.64
2018-12-06T20:54:56.440Z,15.61
2018-12-06T20:57:23.089Z,15.59
2018-12-06T20:59:49.797Z,15.56
2018-12-06T21:02:16.443Z,15.57
2018-12-06T21:04:43.138Z,15.56
2018-12-06T21:07:09.791Z,15.54
2018-12-06T21:09:36.483Z,15.62
2018-12-06T21:12:03.134Z,15.63
2018-12-06T21:14:29.837Z,15.68
2018-12-06T21:16:56.488Z,15.62
2018-12-06T21:19:25.075Z,15.65
2018-12-06T21:21:49.838Z,15.67
2018-12-06T21:24:16.474Z,15.64
2018-12-06T21:26:43.134Z,15.66
2018-12-06T21:29:09.771Z,15.67
2018-12-06T21:31:36.424Z,15.67
2018-12-06T21:34:03.116Z,15.67
2018-12-06T21:36:29.757Z,15.62
2018-12-06T21:38:56.403Z,15.60
2018-12-06T21:41:23.106Z,15.59
2018-12-06T21:43:49.751Z,15.59
2018-12-06T21:46:16.411Z,15.58
2018-12-06T21:48:43.130Z,15.53
2018-12-06T21:51:09.776Z,15.63
2018-12-06T21:53:36.431Z,15.60
2018-12-06T21:56:03.083Z,15.56
2018-12-06T21:58:29.783Z,15.54
2018-12-06T22:00:56.431Z,15.53
2018-12-06T22:03:23.094Z,15.54
2018-12-06T22:05:49.746Z,15.46
2018-12-06T22:08:16.386Z,15.47
2018-12-06T22:10:43.025Z,15.41
2018-12-06T22:13:09.736Z,15.39
2018-12-06T22:15:36.388Z,15.37
2018-12-06T22:18:03.033Z,15.34
2018-12-06T22:20:29.764Z,15.34
2018-12-06T22:22:56.409Z,15.27
2018-12-06T22:25:23.062Z,15.28
2018-12-06T22:27:49.716Z,15.27
2018-12-06T22:30:16.415Z,15.24
2018-12-06T22:32:43.058Z,15.05
2018-12-06T22:35:09.757Z,15.54
2018-12-06T22:37:37.917Z,15.73
2018-12-06T22:40:03.138Z,15.67
2018-12-06T22:42:31.088Z,15.52
2018-12-06T22:44:56.461Z,15.43
2018-12-06T22:47:23.097Z,15.40
2018-12-06T22:49:49.747Z,15.33
2018-12-06T22:52:16.400Z,15.29
2018-12-06T22:54:43.036Z,15.24
2018-12-06T22:57:09.675Z,15.23
2018-12-06T22:59:36.330Z,15.22
2018-12-06T23:02:02.984Z,15.16
2018-12-06T23:04:29.637Z,15.13
2018-12-06T23:06:56.331Z,15.15
2018-12-06T23:09:23.020Z,15.10
2018-12-06T23:11:49.658Z,15.05
2018-12-06T23:14:16.313Z,15.09
2018-12-06T23:16:43.036Z,15.06
2018-12-06T23:19:09.673Z,15.15
2018-12-06T23:21:36.375Z,15.21
2018-12-06T23:24:03.039Z,15.17
2018-12-06T23:26:29.694Z,15.14
2018-12-06T23:28:56.346Z,15.14
2018-12-06T23:31:23.009Z,15.09
2018-12-06T23:33:49.645Z,15.05
2018-12-06T23:36:16.300Z,15.04
2018-12-06T23:38:42.937Z,15.00
2018-12-06T23:41:09.639Z,14.96
2018-12-06T23:43:36.281Z,14.92
2018-12-06T23:46:02.930Z,14.92
2018-12-06T23:48:29.574Z,14.91
2018-12-06T23:50:56.269Z,14.90
2018-12-06T23:53:22.911Z,14.87
2018-12-06T23:55:49.677Z,14.92
2018-12-06T23:58:16.340Z,14.93
